Albany, New York
Traffic Map
Current Weather Conditions
Albany, New York
Broken Clouds
Broken Clouds
29°
Feels Like: 29°
Wind Chill: 29° Ceiling: 8000
Heat Index: 29° Visibility: 10mi
Dew Point: 16° Wind: 18mph
Humidity: 44% Direction: 290° (WNW)
Pressure: 29.88in Gusts: 0mph
Raw Report DataKALB 261951Z 29016KT 10SM FEW050 BKN080 29/16 A2988 RMK AO2 SLP116 T02940161
Traffic Incident Summary
Active as of:
Severity:
Category:
InformationThere was an issue retrieving the traffic information for this location. Please try a different location or try again shortly.
Advertisements
Track Severe Weather on mobile